createdAt,value
2023-04-01T06:38:34.724Z,97554.34
2023-04-01T06:45:59.500Z,97561.13
2023-04-01T06:49:00.756Z,97558.91
2023-04-01T06:52:32.205Z,97561.78
2023-04-01T06:55:47.133Z,97548.47
2023-04-01T06:58:36.109Z,97559.84
2023-04-01T07:01:19.217Z,97557.25
2023-04-01T07:04:02.082Z,97575.03
2023-04-01T07:07:17.261Z,97570.53
2023-04-01T07:10:00.316Z,97556.13
2023-04-01T07:12:59.743Z,97565.88
2023-04-01T07:15:40.664Z,97554.78
2023-04-01T07:18:29.557Z,97555.41
2023-04-01T07:20:57.830Z,97573.91
2023-04-01T07:23:37.436Z,97579.41
2023-04-01T07:26:26.004Z,97577.94
2023-04-01T07:28:55.231Z,97586.38
2023-04-01T07:32:04.379Z,97593.16
2023-04-01T07:34:49.778Z,97589.88
2023-04-01T07:37:43.531Z,97595.06
2023-04-01T07:41:09.224Z,97597.06
2023-04-01T07:44:17.146Z,97591.69
2023-04-01T07:47:35.378Z,97606.78
2023-04-01T07:50:39.284Z,97592.63
2023-04-01T07:53:39.259Z,97599.56
2023-04-01T07:57:17.544Z,97605.16
2023-04-01T08:00:16.796Z,97604.94
2023-04-01T08:03:40.412Z,97598.38
2023-04-01T08:06:47.573Z,97590.41
2023-04-01T08:09:56.444Z,97589.78
2023-04-01T08:13:04.938Z,97595.88
2023-04-01T08:16:25.621Z,97591.09
2023-04-01T08:20:01.673Z,97585.34
2023-04-01T08:22:44.025Z,97596.88
2023-04-01T08:25:26.018Z,97583.75
2023-04-01T08:28:08.393Z,97593.38
2023-04-01T08:31:07.136Z,97596.09
2023-04-01T08:33:35.180Z,97603.03
2023-04-01T08:36:20.228Z,97603.91
2023-04-01T08:39:11.815Z,97614.34
2023-04-01T08:42:07.056Z,97607.59
2023-04-01T08:45:47.359Z,97603.91
2023-04-01T08:49:13.967Z,97601.28
2023-04-01T08:52:35.098Z,97598.75
2023-04-01T08:55:33.555Z,97609.81
2023-04-01T08:58:39.037Z,97596.56
2023-04-01T09:02:24.572Z,97596.28
2023-04-01T09:06:23.030Z,97597.81
2023-04-01T09:09:30.946Z,97607.94
2023-04-01T09:13:11.764Z,97607.72
2023-04-01T09:16:22.249Z,97598.63
2023-04-01T09:19:44.126Z,97576.56
2023-04-01T09:22:59.124Z,97599.47
2023-04-01T09:26:27.899Z,97600.97
2023-04-01T09:30:06.820Z,97615.28
2023-04-01T09:33:59.665Z,97635.06
2023-04-01T09:37:28.641Z,97626.31
2023-04-01T09:40:55.499Z,97619.94
2023-04-01T09:44:02.630Z,97628.16
2023-04-01T09:46:59.060Z,97640.69
2023-04-01T09:50:32.814Z,97631.44
2023-04-01T09:53:29.455Z,97629.94
2023-04-01T09:56:46.609Z,97621.41
2023-04-01T09:59:58.204Z,97624.66
2023-04-01T10:03:14.366Z,97641.53
2023-04-01T10:06:46.880Z,97633.63
2023-04-01T10:10:21.527Z,97640.84
2023-04-01T10:13:31.492Z,97635.94
2023-04-01T10:16:53.679Z,97627.78
2023-04-01T10:20:27.724Z,97644.66
2023-04-01T10:24:00.777Z,97640.75
2023-04-01T10:27:35.496Z,97642.56
2023-04-01T10:31:02.142Z,97653.88
2023-04-01T10:34:01.346Z,97644.69
2023-04-01T10:37:11.823Z,97650.59
2023-04-01T10:40:27.572Z,97651.66
2023-04-01T10:43:53.084Z,97680.13
2023-04-01T10:47:15.042Z,97674.47
2023-04-01T10:50:42.811Z,97669.66
2023-04-01T10:54:12.464Z,97670.19
2023-04-01T10:57:55.512Z,97668.53
2023-04-01T11:01:21.877Z,97676.50
2023-04-01T11:04:49.860Z,97659.94
2023-04-01T11:08:57.405Z,97661.69
2023-04-01T11:12:04.865Z,97664.84
2023-04-01T11:14:43.974Z,97658.28
2023-04-01T11:18:19.087Z,97655.53
2023-04-01T11:22:12.206Z,97641.78
2023-04-01T11:25:29.445Z,97632.00
2023-04-01T11:28:55.553Z,97645.16
2023-04-01T11:32:28.726Z,97640.09
2023-04-01T11:36:11.112Z,97639.38
2023-04-01T11:39:26.253Z,97636.72
2023-04-01T11:43:08.551Z,97642.66
2023-04-01T11:46:44.805Z,97643.16
2023-04-01T11:50:01.249Z,97646.75
2023-04-01T11:52:57.709Z,97641.22
2023-04-01T11:56:33.733Z,97635.34
2023-04-01T11:59:33.839Z,97627.84
2023-04-01T12:03:25.648Z,97638.47
2023-04-01T12:06:27.182Z,97630.16
2023-04-01T12:09:59.413Z,97631.38
2023-04-01T12:13:08.741Z,97631.41
2023-04-01T12:16:41.161Z,97637.31
2023-04-01T12:19:49.703Z,97641.25
2023-04-01T12:23:15.516Z,97629.00
2023-04-01T12:26:42.217Z,97630.19
2023-04-01T12:29:49.401Z,97638.88
2023-04-01T12:33:43.780Z,97633.31
2023-04-01T12:37:00.120Z,97632.13
2023-04-01T12:40:27.361Z,97640.75
2023-04-01T12:43:57.792Z,97628.53
2023-04-01T12:47:20.119Z,97628.16
2023-04-01T12:50:52.752Z,97633.75
2023-04-01T12:53:57.457Z,97626.25
2023-04-01T12:56:44.366Z,97629.81
2023-04-01T13:00:01.532Z,97636.03
2023-04-01T13:03:16.665Z,97634.03
2023-04-01T13:06:29.534Z,97647.47
2023-04-01T13:09:40.853Z,97656.41
2023-04-01T13:13:01.745Z,97667.41
2023-04-01T13:15:51.439Z,97655.91
2023-04-01T13:18:58.113Z,97653.75
2023-04-01T13:22:01.266Z,97652.16
2023-04-01T13:25:19.501Z,97651.84
2023-04-01T13:28:19.147Z,97646.50
2023-04-01T13:31:06.984Z,97648.19
2023-04-01T13:34:17.948Z,97660.38
2023-04-01T13:37:28.564Z,97646.56
2023-04-01T13:40:23.665Z,97659.59
2023-04-01T13:43:38.585Z,97635.53
2023-04-01T13:47:08.004Z,97627.56
2023-04-01T13:51:01.674Z,97640.66
2023-04-01T13:54:42.768Z,97640.34
2023-04-01T13:58:00.833Z,97639.91
2023-04-01T14:01:27.586Z,97639.50
2023-04-01T14:05:10.642Z,97634.06
2023-04-01T14:08:18.565Z,97638.84
2023-04-01T14:11:18.585Z,97640.41
2023-04-01T14:14:57.087Z,97646.78
2023-04-01T14:17:55.624Z,97649.94
2023-04-01T14:21:38.766Z,97637.69
2023-04-01T14:24:53.852Z,97645.22
2023-04-01T14:28:04.519Z,97645.91
2023-04-01T14:31:08.269Z,97637.59
2023-04-01T14:34:22.749Z,97634.53
2023-04-01T14:37:17.931Z,97635.59
2023-04-01T14:40:52.056Z,97606.38
2023-04-01T14:43:57.395Z,97608.84
2023-04-01T14:46:54.226Z,97587.13
2023-04-01T14:49:47.904Z,97595.41
2023-04-01T14:52:40.062Z,97601.38
2023-04-01T14:55:44.003Z,97617.47
2023-04-01T14:58:21.087Z,97616.00
2023-04-01T15:01:18.444Z,97615.13
2023-04-01T15:04:38.856Z,97609.13
2023-04-01T15:08:03.166Z,97607.88
2023-04-01T15:11:34.347Z,97604.41
2023-04-01T15:14:59.978Z,97614.53
2023-04-01T15:18:19.066Z,97611.47
2023-04-01T15:21:34.995Z,97611.88
2023-04-01T15:24:49.540Z,97615.25
2023-04-01T15:28:00.493Z,97615.78
2023-04-01T15:30:41.842Z,97615.53
2023-04-01T15:33:48.847Z,97606.22
2023-04-01T15:37:27.254Z,97607.56
2023-04-01T15:40:17.039Z,97613.81
2023-04-01T15:43:49.909Z,97618.16
2023-04-01T15:46:49.699Z,97618.84
2023-04-01T15:49:42.623Z,97631.25
2023-04-01T15:52:36.896Z,97619.25
2023-04-01T15:55:47.712Z,97622.97
2023-04-01T15:58:27.638Z,97613.03
2023-04-01T16:01:56.338Z,97615.19
2023-04-01T16:04:56.866Z,97607.56
2023-04-01T16:09:05.177Z,97612.63
2023-04-01T16:12:05.818Z,97610.13
2023-04-01T16:15:09.591Z,97620.22
2023-04-01T16:18:07.585Z,97622.16
2023-04-01T16:21:06.356Z,97619.78
2023-04-01T16:24:06.391Z,97622.88
2023-04-01T16:27:23.070Z,97634.56
2023-04-01T16:30:35.919Z,97651.69
2023-04-01T16:34:20.443Z,97651.34
2023-04-01T16:37:18.216Z,97644.53
2023-04-01T16:40:21.370Z,97647.50
2023-04-01T16:43:12.728Z,97650.59
2023-04-01T16:45:49.537Z,97659.34
2023-04-01T16:48:37.684Z,97660.00
2023-04-01T16:51:17.324Z,97653.38
2023-04-01T16:54:22.578Z,97658.38
2023-04-01T16:57:09.800Z,97653.84
2023-04-01T17:00:17.409Z,97652.69
2023-04-01T17:03:09.417Z,97652.22
2023-04-01T17:06:32.536Z,97662.22
2023-04-01T17:10:11.851Z,97662.75
2023-04-01T17:13:31.739Z,97667.16
2023-04-01T17:16:37.298Z,97666.38
2023-04-01T17:20:03.758Z,97656.78
2023-04-01T17:23:04.112Z,97651.69
2023-04-01T17:26:39.586Z,97656.94
2023-04-01T17:29:28.582Z,97650.63
2023-04-01T17:32:29.023Z,97657.19
2023-04-01T17:35:28.152Z,97654.25
2023-04-01T17:39:14.525Z,97662.84
2023-04-01T17:42:06.590Z,97664.16
2023-04-01T17:45:39.081Z,97669.28
2023-04-01T17:49:17.213Z,97649.53
2023-04-01T17:52:12.880Z,97664.53
2023-04-01T17:54:59.131Z,97677.97
2023-04-01T17:58:03.618Z,97670.00
2023-04-01T18:01:15.703Z,97688.22
2023-04-01T18:04:27.245Z,97689.41
2023-04-01T18:07:20.552Z,97696.13
2023-04-01T18:11:00.850Z,97710.75
2023-04-01T18:13:56.159Z,97717.84
2023-04-01T18:17:36.198Z,97707.34
2023-04-01T18:21:35.922Z,97717.59
2023-04-01T18:24:43.500Z,97736.06
2023-04-01T18:27:34.709Z,97740.44
2023-04-01T18:30:33.191Z,97750.72
2023-04-01T18:33:44.819Z,97747.59
2023-04-01T18:37:52.190Z,97762.00
2023-04-01T18:41:14.884Z,97766.41
2023-04-01T18:44:41.065Z,97777.72
2023-04-01T18:48:14.549Z,97764.16
2023-04-01T18:51:05.589Z,97767.19
2023-04-01T18:53:35.770Z,97771.75
2023-04-01T18:56:26.416Z,97770.25
2023-04-01T18:59:29.833Z,97769.38
2023-04-01T19:03:08.095Z,97771.91
2023-04-01T19:05:48.721Z,97763.28
2023-04-01T19:08:21.248Z,97762.31
2023-04-01T19:11:51.340Z,97763.81
2023-04-01T19:14:54.608Z,97768.81
2023-04-01T19:18:08.211Z,97767.69
2023-04-01T19:21:34.711Z,97764.16
2023-04-01T19:25:05.158Z,97765.78
2023-04-01T19:28:31.797Z,97767.28
2023-04-01T19:31:28.867Z,97773.69
2023-04-01T19:34:41.461Z,97769.31
2023-04-01T19:37:53.070Z,97757.78
2023-04-01T19:41:06.413Z,97770.50
2023-04-01T19:44:26.731Z,97774.81
2023-04-01T19:47:46.887Z,97783.25
2023-04-01T19:50:39.593Z,97779.47
2023-04-01T19:54:05.471Z,97779.81
2023-04-01T19:57:00.303Z,97782.94
2023-04-01T20:00:16.230Z,97784.22
2023-04-01T20:03:51.090Z,97783.69
2023-04-01T20:07:37.945Z,97792.50
2023-04-01T20:10:20.951Z,97792.13
2023-04-01T20:13:18.835Z,97789.22
2023-04-01T20:16:09.705Z,97796.47
2023-04-01T20:19:01.910Z,97803.44
2023-04-01T20:21:47.449Z,97810.16
2023-04-01T20:24:48.049Z,97806.50
2023-04-01T20:27:48.020Z,97812.38
2023-04-01T20:31:12.454Z,97807.31
2023-04-01T20:34:33.998Z,97822.31
2023-04-01T20:37:43.546Z,97827.94
2023-04-01T20:40:35.049Z,97831.06
2023-04-01T20:43:35.491Z,97850.31
2023-04-01T20:47:23.122Z,97846.72
2023-04-01T20:50:55.750Z,97849.50
2023-04-01T20:54:11.659Z,97849.94
2023-04-01T20:57:45.122Z,97849.25
2023-04-01T21:00:52.660Z,97850.00
2023-04-01T21:03:50.572Z,97851.22
2023-04-01T21:07:11.210Z,97857.06
2023-04-01T21:10:12.472Z,97870.50
2023-04-01T21:13:17.939Z,97881.53
2023-04-01T21:16:41.118Z,97887.41
2023-04-01T21:19:43.821Z,97891.06
2023-04-01T21:23:21.399Z,97900.47
2023-04-01T21:26:55.509Z,97881.53
2023-04-01T21:30:36.800Z,97879.59
2023-04-01T21:33:54.115Z,97879.38
2023-04-01T21:37:25.393Z,97877.47
2023-04-01T21:40:40.664Z,97879.22
2023-04-01T21:44:17.447Z,97874.13
2023-04-01T21:47:51.965Z,97872.78
2023-04-01T21:50:55.455Z,97878.28
2023-04-01T21:54:05.123Z,97883.19
2023-04-01T21:57:49.110Z,97884.13
2023-04-01T22:00:32.804Z,97886.22
2023-04-01T22:04:14.533Z,97883.47
2023-04-01T22:07:21.198Z,97892.78
2023-04-01T22:10:22.871Z,97901.25
2023-04-01T22:13:35.179Z,97900.97
2023-04-01T22:16:53.518Z,97901.19
2023-04-01T22:20:04.763Z,97902.59
2023-04-01T22:23:30.066Z,97891.34
2023-04-01T22:26:28.017Z,97910.03
2023-04-01T22:29:42.990Z,97897.16
2023-04-01T22:32:43.997Z,97910.91
2023-04-01T22:36:01.910Z,97911.31
2023-04-01T22:39:12.025Z,97904.66
2023-04-01T22:42:45.076Z,97913.50
2023-04-01T22:45:35.497Z,97916.47
